createdAt,value
2023-03-24T00:02:46.786Z,17.02
2023-03-24T00:07:40.698Z,17.48
2023-03-24T00:12:35.019Z,17.92
2023-03-24T00:17:29.822Z,18.58
2023-03-24T00:22:24.359Z,16.63
2023-03-24T00:27:19.495Z,15.98
2023-03-24T00:32:12.213Z,16.40
2023-03-24T00:37:06.555Z,14.98
2023-03-24T00:42:02.058Z,15.45
2023-03-24T00:46:58.348Z,14.40
2023-03-24T00:51:51.750Z,15.73
2023-03-24T00:56:44.565Z,17.27
2023-03-24T01:01:39.534Z,17.60
2023-03-24T01:06:37.369Z,19.35
2023-03-24T01:11:38.274Z,17.13
2023-03-24T01:16:31.396Z,16.42
2023-03-24T01:21:25.494Z,15.65
2023-03-24T01:26:18.545Z,17.02
2023-03-24T01:31:12.428Z,17.55
2023-03-24T01:36:07.304Z,17.13
2023-03-24T01:41:00.547Z,16.88
2023-03-24T01:46:02.215Z,17.27
2023-03-24T01:51:02.679Z,17.67
2023-03-24T01:55:55.941Z,17.15
2023-03-24T02:00:53.948Z,18.30
2023-03-24T02:06:16.091Z,17.08
2023-03-24T02:11:10.214Z,16.73
2023-03-24T02:16:19.462Z,16.90
2023-03-24T02:21:17.551Z,16.38
2023-03-24T02:26:36.871Z,17.67
2023-03-24T02:31:55.825Z,17.60
2023-03-24T02:37:33.536Z,14.57
2023-03-24T02:42:53.524Z,15.93
2023-03-24T02:48:26.793Z,14.95
2023-03-24T02:53:24.962Z,15.90
2023-03-24T02:58:41.145Z,15.77
2023-03-24T03:03:43.277Z,16.60
2023-03-24T03:08:37.830Z,15.07
2023-03-24T03:13:37.793Z,17.17
2023-03-24T03:18:43.483Z,15.43
2023-03-24T03:23:38.944Z,14.93
2023-03-24T03:28:52.629Z,15.40
2023-03-24T03:34:03.626Z,13.80
2023-03-24T03:39:16.779Z,14.45
2023-03-24T03:44:26.544Z,15.07
2023-03-24T03:49:28.124Z,14.85
2023-03-24T03:54:21.194Z,16.15
2023-03-24T03:59:31.092Z,14.77
2023-03-24T04:04:33.612Z,14.15
2023-03-24T04:10:22.598Z,12.60
2023-03-24T04:15:27.329Z,14.02
2023-03-24T04:20:50.809Z,12.80
2023-03-24T04:26:12.115Z,12.57
2023-03-24T04:31:30.259Z,12.10
2023-03-24T04:36:43.411Z,13.18
2023-03-24T04:42:12.885Z,12.70
2023-03-24T04:47:07.202Z,13.23
2023-03-24T04:52:01.489Z,13.98
2023-03-24T04:56:59.552Z,14.80
2023-03-24T05:01:59.008Z,13.32
2023-03-24T05:06:58.426Z,12.57
2023-03-24T05:11:52.853Z,14.68
2023-03-24T05:16:48.135Z,14.35
2023-03-24T05:21:44.225Z,13.80
2023-03-24T05:26:38.262Z,14.02
2023-03-24T05:31:45.953Z,13.38
2023-03-24T05:36:44.138Z,13.23
2023-03-24T05:41:41.335Z,14.10
2023-03-24T05:46:35.110Z,14.82
2023-03-24T05:51:30.681Z,14.45
2023-03-24T05:56:28.822Z,15.27
2023-03-24T06:01:35.808Z,15.75
2023-03-24T06:06:46.136Z,15.07
2023-03-24T06:11:46.269Z,12.93
2023-03-24T06:16:40.284Z,13.63
2023-03-24T06:21:36.290Z,12.15
2023-03-24T06:26:31.112Z,13.27
2023-03-24T06:31:28.379Z,14.05
2023-03-24T06:36:20.862Z,13.55
2023-03-24T06:41:14.122Z,15.18
2023-03-24T06:46:09.134Z,13.65
2023-03-24T06:51:05.366Z,13.50
2023-03-24T06:55:58.855Z,14.02
2023-03-24T07:00:55.984Z,13.90
2023-03-24T07:06:00.327Z,14.77
2023-03-24T07:10:54.296Z,13.43
2023-03-24T07:15:49.185Z,11.57
2023-03-24T07:20:43.504Z,13.07
2023-03-24T07:25:41.351Z,11.65
2023-03-24T07:31:11.144Z,12.63
2023-03-24T07:36:08.472Z,12.63
2023-03-24T07:41:03.902Z,13.75
2023-03-24T07:45:59.215Z,12.85
2023-03-24T07:50:55.141Z,13.18
2023-03-24T07:56:07.476Z,12.55
2023-03-24T08:01:10.214Z,13.05
2023-03-24T08:06:10.734Z,12.45
2023-03-24T08:11:10.511Z,13.38
2023-03-24T08:16:05.200Z,12.52
2023-03-24T08:20:59.034Z,13.07
2023-03-24T08:25:51.920Z,13.05
2023-03-24T08:30:45.388Z,13.73
2023-03-24T08:35:39.251Z,11.93
2023-03-24T08:40:31.862Z,12.15
2023-03-24T08:45:28.678Z,10.98
2023-03-24T08:50:24.691Z,11.35
2023-03-24T08:55:19.333Z,11.73
2023-03-24T09:00:15.905Z,11.00
2023-03-24T09:05:09.386Z,9.15
2023-03-24T09:10:02.947Z,10.05
2023-03-24T09:14:56.932Z,9.15
2023-03-24T09:19:50.567Z,9.88
2023-03-24T09:24:44.514Z,9.43
2023-03-24T09:29:38.091Z,11.50
2023-03-24T09:34:33.393Z,9.63
2023-03-24T09:39:26.322Z,11.40
2023-03-24T09:44:45.420Z,10.73
2023-03-24T09:49:39.653Z,12.13
2023-03-24T09:54:38.737Z,9.80
2023-03-24T09:59:39.206Z,8.48
2023-03-24T10:04:33.316Z,7.85
2023-03-24T10:09:36.953Z,6.43
2023-03-24T10:14:30.145Z,7.25
2023-03-24T10:19:59.324Z,7.22
2023-03-24T10:25:32.437Z,7.38
2023-03-24T10:30:29.270Z,6.30
2023-03-24T10:35:25.673Z,6.88
2023-03-24T10:40:25.101Z,6.35
2023-03-24T10:45:27.210Z,6.43
2023-03-24T10:50:25.088Z,6.15
2023-03-24T10:55:20.582Z,5.70
2023-03-24T11:00:40.468Z,5.47
2023-03-24T11:05:38.315Z,5.80
2023-03-24T11:10:32.289Z,4.63
2023-03-24T11:15:29.730Z,5.13
2023-03-24T11:20:34.178Z,3.85
2023-03-24T11:25:33.740Z,4.32
2023-03-24T11:30:48.388Z,3.60
2023-03-24T11:35:42.666Z,3.30
2023-03-24T11:40:41.984Z,4.18
2023-03-24T11:45:37.674Z,4.10
2023-03-24T11:50:35.954Z,4.83
2023-03-24T11:55:55.554Z,4.35
2023-03-24T12:01:13.348Z,4.78
2023-03-24T12:06:15.663Z,5.22
2023-03-24T12:11:18.799Z,3.92
2023-03-24T12:16:14.463Z,4.90
2023-03-24T12:21:51.353Z,5.13
2023-03-24T12:26:45.873Z,4.50
2023-03-24T12:31:47.736Z,4.60
2023-03-24T12:36:49.381Z,4.68
2023-03-24T12:41:54.082Z,5.07
2023-03-24T12:47:01.140Z,4.72
2023-03-24T12:52:17.491Z,4.15
2023-03-24T12:57:14.224Z,4.55
2023-03-24T13:02:09.314Z,4.88
2023-03-24T13:07:15.360Z,4.88
2023-03-24T13:12:19.121Z,5.85
2023-03-24T13:17:20.844Z,4.70
2023-03-24T13:22:24.552Z,4.28
2023-03-24T13:27:45.988Z,4.88
2023-03-24T13:32:53.893Z,3.95
2023-03-24T13:37:59.619Z,4.68
2023-03-24T13:42:58.314Z,4.60
2023-03-24T13:48:10.694Z,4.72
2023-03-24T13:53:14.173Z,5.18
2023-03-24T13:58:15.379Z,5.72
2023-03-24T14:03:17.476Z,5.32
2023-03-24T14:08:14.396Z,6.35
2023-03-24T14:13:13.009Z,7.47
2023-03-24T14:18:23.841Z,6.07
2023-03-24T14:23:23.921Z,6.45
2023-03-24T14:28:27.857Z,7.30
2023-03-24T14:33:25.465Z,6.55
2023-03-24T14:38:26.602Z,6.20
2023-03-24T14:43:22.705Z,5.70
2023-03-24T14:48:53.023Z,5.72
2023-03-24T14:53:45.833Z,5.35
2023-03-24T14:58:40.118Z,5.85
2023-03-24T15:03:49.845Z,5.60
2023-03-24T15:09:05.569Z,5.75
2023-03-24T15:13:59.477Z,5.20
2023-03-24T15:19:02.676Z,5.00
2023-03-24T15:23:57.334Z,8.00
2023-03-24T15:29:06.671Z,3.72
2023-03-24T15:34:45.295Z,1.17
2023-03-24T15:39:39.622Z,1.30
2023-03-24T15:44:32.361Z,1.10
2023-03-24T15:49:50.708Z,1.02
2023-03-24T15:54:46.278Z,1.23
2023-03-24T15:59:46.129Z,1.25
2023-03-24T16:04:39.464Z,1.17
2023-03-24T16:09:41.706Z,1.63
2023-03-24T16:14:36.000Z,1.00
2023-03-24T16:19:29.752Z,1.60
2023-03-24T16:24:24.009Z,1.05
2023-03-24T16:29:19.019Z,1.13
2023-03-24T16:34:12.024Z,0.85
2023-03-24T16:39:14.406Z,1.17
2023-03-24T16:44:07.581Z,1.13
2023-03-24T16:49:01.613Z,0.90
2023-03-24T16:53:54.682Z,1.10
2023-03-24T16:58:52.348Z,1.20
2023-03-24T17:03:49.903Z,1.20
2023-03-24T17:08:45.031Z,1.17
2023-03-24T17:13:38.822Z,0.88
2023-03-24T17:18:32.304Z,20.02
2023-03-24T17:23:25.355Z,1.65
2023-03-24T17:28:18.260Z,1.38
2023-03-24T17:33:16.041Z,1.42
2023-03-24T17:38:11.377Z,1.23
2023-03-24T17:43:05.535Z,9.43
2023-03-24T17:47:58.151Z,8.38
2023-03-24T17:52:51.938Z,12.88
2023-03-24T17:57:45.713Z,4.15
2023-03-24T18:02:41.716Z,2.03
2023-03-24T18:07:35.775Z,6.00
2023-03-24T18:12:29.290Z,3.53
2023-03-24T18:17:22.698Z,1.90
2023-03-24T18:22:16.874Z,2.15
2023-03-24T18:27:10.783Z,2.83
2023-03-24T18:32:05.268Z,1.27
2023-03-24T18:36:59.100Z,0.93
2023-03-24T18:41:53.617Z,1.00
2023-03-24T18:46:46.766Z,1.27
2023-03-24T18:51:41.210Z,1.30
2023-03-24T18:56:34.107Z,1.48
2023-03-24T19:01:26.857Z,1.77
2023-03-24T19:06:20.263Z,2.40
2023-03-24T19:11:14.406Z,2.45
2023-03-24T19:16:09.739Z,2.45
2023-03-24T19:21:04.844Z,2.38
2023-03-24T19:25:57.418Z,2.22
2023-03-24T19:30:51.792Z,2.40
2023-03-24T19:35:48.436Z,2.08
2023-03-24T19:40:42.425Z,2.28
2023-03-24T19:45:35.432Z,2.13
2023-03-24T19:50:29.762Z,1.88
2023-03-24T19:55:23.628Z,3.17
2023-03-24T20:00:17.830Z,2.72
2023-03-24T20:05:11.353Z,2.67
2023-03-24T20:10:06.159Z,2.70
2023-03-24T20:14:59.403Z,2.67
2023-03-24T20:19:52.632Z,2.53
2023-03-24T20:24:48.199Z,2.47
2023-03-24T20:29:42.575Z,2.50
2023-03-24T20:34:35.980Z,2.80
2023-03-24T20:39:29.951Z,2.50
2023-03-24T20:44:23.537Z,2.95
2023-03-24T20:49:17.960Z,3.33
2023-03-24T20:54:10.267Z,2.95
2023-03-24T20:59:07.334Z,2.80
2023-03-24T21:04:08.398Z,4.07
2023-03-24T21:09:02.760Z,3.95
2023-03-24T21:13:56.272Z,3.92
2023-03-24T21:18:49.252Z,3.67
2023-03-24T21:23:43.750Z,3.15
2023-03-24T21:28:37.523Z,3.50
2023-03-24T21:33:30.597Z,3.75
2023-03-24T21:38:25.533Z,3.53
2023-03-24T21:43:19.177Z,3.50
2023-03-24T21:48:14.064Z,3.53
2023-03-24T21:53:15.514Z,4.60
2023-03-24T21:58:09.277Z,3.22
2023-03-24T22:03:04.233Z,3.35
2023-03-24T22:07:57.567Z,2.85
2023-03-24T22:12:52.367Z,2.97
2023-03-24T22:17:45.880Z,3.05
2023-03-24T22:22:40.718Z,2.95
2023-03-24T22:27:34.152Z,2.92
2023-03-24T22:32:27.413Z,3.05
2023-03-24T22:37:20.621Z,2.88
2023-03-24T22:42:13.762Z,2.90
2023-03-24T22:47:07.004Z,3.40
2023-03-24T22:52:00.458Z,3.72
2023-03-24T22:56:53.957Z,3.90
2023-03-24T23:01:51.469Z,3.38
2023-03-24T23:06:53.285Z,3.35
2023-03-24T23:11:46.304Z,5.55
2023-03-24T23:16:40.369Z,5.55
2023-03-24T23:21:34.007Z,6.28
2023-03-24T23:26:30.859Z,4.47
2023-03-24T23:31:28.630Z,4.07
2023-03-24T23:36:22.246Z,4.70
2023-03-24T23:41:15.872Z,3.88
2023-03-24T23:46:10.303Z,4.22
2023-03-24T23:51:05.337Z,3.63
2023-03-24T23:56:01.537Z,4.20
